sensor_id;sensor_type;location;lat;lon;timestamp;P1;durP1;ratioP1;P2;durP2;ratioP2
62268;SDS011;56517;51.634;5.566;2023-05-14T00:00:20;18.05;;;9.63;;
62268;SDS011;56517;51.634;5.566;2023-05-14T00:01:41;15.77;;;10.25;;
62268;SDS011;56517;51.634;5.566;2023-05-14T00:03:02;14.30;;;9.88;;
62268;SDS011;56517;51.634;5.566;2023-05-14T00:04:23;13.70;;;9.60;;
62268;SDS011;56517;51.634;5.566;2023-05-14T00:05:44;23.83;;;11.52;;
62268;SDS011;56517;51.634;5.566;2023-05-14T00:07:10;12.40;;;9.07;;
62268;SDS011;56517;51.634;5.566;2023-05-14T00:08:34;15.68;;;9.82;;
62268;SDS011;56517;51.634;5.566;2023-05-14T00:09:56;12.68;;;9.20;;
62268;SDS011;56517;51.634;5.566;2023-05-14T00:11:17;19.27;;;10.40;;
62268;SDS011;56517;51.634;5.566;2023-05-14T00:12:38;17.10;;;9.73;;
62268;SDS011;56517;51.634;5.566;2023-05-14T00:13:59;13.20;;;9.18;;
62268;SDS011;56517;51.634;5.566;2023-05-14T00:15:20;16.05;;;10.45;;
62268;SDS011;56517;51.634;5.566;2023-05-14T00:16:41;15.65;;;9.35;;
62268;SDS011;56517;51.634;5.566;2023-05-14T00:18:02;15.15;;;8.93;;
62268;SDS011;56517;51.634;5.566;2023-05-14T00:19:23;14.88;;;9.13;;
62268;SDS011;56517;51.634;5.566;2023-05-14T00:20:45;15.57;;;10.00;;
62268;SDS011;56517;51.634;5.566;2023-05-14T00:22:06;19.67;;;10.43;;
62268;SDS011;56517;51.634;5.566;2023-05-14T00:23:27;18.08;;;9.27;;
62268;SDS011;56517;51.634;5.566;2023-05-14T00:24:48;14.63;;;9.80;;
62268;SDS011;56517;51.634;5.566;2023-05-14T00:26:09;22.58;;;12.00;;
62268;SDS011;56517;51.634;5.566;2023-05-14T00:27:30;16.67;;;9.65;;
62268;SDS011;56517;51.634;5.566;2023-05-14T00:28:53;13.43;;;9.73;;
62268;SDS011;56517;51.634;5.566;2023-05-14T00:30:14;15.65;;;9.40;;
62268;SDS011;56517;51.634;5.566;2023-05-14T00:31:37;18.92;;;9.73;;
62268;SDS011;56517;51.634;5.566;2023-05-14T00:32:58;14.40;;;9.95;;
62268;SDS011;56517;51.634;5.566;2023-05-14T00:34:19;20.27;;;10.10;;
62268;SDS011;56517;51.634;5.566;2023-05-14T00:35:40;17.77;;;9.90;;
62268;SDS011;56517;51.634;5.566;2023-05-14T00:37:01;17.25;;;10.30;;
62268;SDS011;56517;51.634;5.566;2023-05-14T00:38:24;16.70;;;9.82;;
62268;SDS011;56517;51.634;5.566;2023-05-14T00:39:47;13.52;;;9.73;;
62268;SDS011;56517;51.634;5.566;2023-05-14T00:41:08;19.42;;;10.63;;
62268;SDS011;56517;51.634;5.566;2023-05-14T00:42:29;19.80;;;11.15;;
62268;SDS011;56517;51.634;5.566;2023-05-14T00:43:50;16.67;;;11.10;;
62268;SDS011;56517;51.634;5.566;2023-05-14T00:45:10;16.77;;;10.60;;
62268;SDS011;56517;51.634;5.566;2023-05-14T00:46:31;16.52;;;10.75;;
62268;SDS011;56517;51.634;5.566;2023-05-14T00:47:52;14.00;;;11.15;;
62268;SDS011;56517;51.634;5.566;2023-05-14T00:49:16;13.57;;;10.38;;
62268;SDS011;56517;51.634;5.566;2023-05-14T00:50:38;16.00;;;11.05;;
62268;SDS011;56517;51.634;5.566;2023-05-14T00:52:00;28.65;;;13.23;;
62268;SDS011;56517;51.634;5.566;2023-05-14T00:53:21;15.80;;;11.48;;
62268;SDS011;56517;51.634;5.566;2023-05-14T00:54:42;16.50;;;11.30;;
62268;SDS011;56517;51.634;5.566;2023-05-14T00:56:03;16.65;;;10.70;;
62268;SDS011;56517;51.634;5.566;2023-05-14T00:57:25;16.55;;;10.27;;
62268;SDS011;56517;51.634;5.566;2023-05-14T00:58:46;16.67;;;11.10;;
62268;SDS011;56517;51.634;5.566;2023-05-14T01:00:08;23.58;;;12.10;;
62268;SDS011;56517;51.634;5.566;2023-05-14T01:01:29;25.45;;;13.38;;
62268;SDS011;56517;51.634;5.566;2023-05-14T01:02:50;14.43;;;10.68;;
62268;SDS011;56517;51.634;5.566;2023-05-14T01:04:12;18.35;;;12.40;;
62268;SDS011;56517;51.634;5.566;2023-05-14T01:07:07;25.33;;;14.73;;
62268;SDS011;56517;51.634;5.566;2023-05-14T01:08:45;17.85;;;12.10;;
62268;SDS011;56517;51.634;5.566;2023-05-14T01:10:11;22.98;;;12.52;;
62268;SDS011;56517;51.634;5.566;2023-05-14T01:11:46;24.00;;;13.65;;
62268;SDS011;56517;51.634;5.566;2023-05-14T01:13:12;17.98;;;11.70;;
62268;SDS011;56517;51.634;5.566;2023-05-14T01:14:41;17.38;;;11.82;;
62268;SDS011;56517;51.634;5.566;2023-05-14T01:16:03;17.27;;;12.35;;
62268;SDS011;56517;51.634;5.566;2023-05-14T01:17:28;19.40;;;12.82;;
62268;SDS011;56517;51.634;5.566;2023-05-14T01:18:52;20.90;;;11.57;;
62268;SDS011;56517;51.634;5.566;2023-05-14T01:20:14;21.08;;;13.38;;
62268;SDS011;56517;51.634;5.566;2023-05-14T01:21:36;24.23;;;12.93;;
62268;SDS011;56517;51.634;5.566;2023-05-14T01:23:01;20.58;;;12.85;;
62268;SDS011;56517;51.634;5.566;2023-05-14T01:24:22;24.02;;;12.82;;
62268;SDS011;56517;51.634;5.566;2023-05-14T01:25:43;17.00;;;11.70;;
62268;SDS011;56517;51.634;5.566;2023-05-14T01:27:24;20.70;;;11.93;;
62268;SDS011;56517;51.634;5.566;2023-05-14T01:28:45;21.50;;;13.32;;
62268;SDS011;56517;51.634;5.566;2023-05-14T01:31:47;24.50;;;13.50;;
62268;SDS011;56517;51.634;5.566;2023-05-14T01:33:10;17.45;;;12.32;;
62268;SDS011;56517;51.634;5.566;2023-05-14T01:34:31;16.45;;;12.30;;
62268;SDS011;56517;51.634;5.566;2023-05-14T01:35:52;21.38;;;13.57;;
62268;SDS011;56517;51.634;5.566;2023-05-14T01:37:13;23.88;;;13.70;;
62268;SDS011;56517;51.634;5.566;2023-05-14T01:38:35;19.67;;;13.63;;
62268;SDS011;56517;51.634;5.566;2023-05-14T01:39:57;17.10;;;12.27;;
62268;SDS011;56517;51.634;5.566;2023-05-14T01:41:18;20.23;;;12.50;;
62268;SDS011;56517;51.634;5.566;2023-05-14T01:42:41;22.85;;;13.40;;
62268;SDS011;56517;51.634;5.566;2023-05-14T01:44:02;23.77;;;13.20;;
62268;SDS011;56517;51.634;5.566;2023-05-14T01:45:23;20.08;;;12.95;;
62268;SDS011;56517;51.634;5.566;2023-05-14T01:46:44;33.50;;;16.75;;
62268;SDS011;56517;51.634;5.566;2023-05-14T01:48:05;22.67;;;13.63;;
62268;SDS011;56517;51.634;5.566;2023-05-14T01:49:26;23.13;;;13.73;;
62268;SDS011;56517;51.634;5.566;2023-05-14T01:50:47;19.85;;;12.90;;
62268;SDS011;56517;51.634;5.566;2023-05-14T01:52:10;25.13;;;13.85;;
62268;SDS011;56517;51.634;5.566;2023-05-14T01:53:32;25.23;;;14.45;;
62268;SDS011;56517;51.634;5.566;2023-05-14T01:54:54;22.63;;;14.05;;
62268;SDS011;56517;51.634;5.566;2023-05-14T01:56:16;18.75;;;13.32;;
62268;SDS011;56517;51.634;5.566;2023-05-14T01:57:36;20.67;;;13.57;;
62268;SDS011;56517;51.634;5.566;2023-05-14T01:58:57;21.85;;;13.88;;
62268;SDS011;56517;51.634;5.566;2023-05-14T02:00:19;22.27;;;13.73;;
62268;SDS011;56517;51.634;5.566;2023-05-14T02:01:40;20.98;;;13.88;;
62268;SDS011;56517;51.634;5.566;2023-05-14T02:03:00;25.85;;;14.63;;
62268;SDS011;56517;51.634;5.566;2023-05-14T02:04:21;23.08;;;14.13;;
62268;SDS011;56517;51.634;5.566;2023-05-14T02:05:42;26.35;;;14.90;;
62268;SDS011;56517;51.634;5.566;2023-05-14T02:07:03;21.70;;;14.82;;
62268;SDS011;56517;51.634;5.566;2023-05-14T02:08:24;22.83;;;14.50;;
62268;SDS011;56517;51.634;5.566;2023-05-14T02:09:45;36.85;;;16.70;;
62268;SDS011;56517;51.634;5.566;2023-05-14T02:11:06;26.15;;;14.25;;
62268;SDS011;56517;51.634;5.566;2023-05-14T02:12:27;28.67;;;16.15;;
62268;SDS011;56517;51.634;5.566;2023-05-14T02:13:48;21.88;;;14.13;;
62268;SDS011;56517;51.634;5.566;2023-05-14T02:15:09;17.17;;;13.30;;
62268;SDS011;56517;51.634;5.566;2023-05-14T02:16:30;21.27;;;13.85;;
62268;SDS011;56517;51.634;5.566;2023-05-14T02:17:51;30.05;;;16.42;;
62268;SDS011;56517;51.634;5.566;2023-05-14T02:19:12;28.25;;;16.17;;
62268;SDS011;56517;51.634;5.566;2023-05-14T02:20:36;22.05;;;13.52;;
62268;SDS011;56517;51.634;5.566;2023-05-14T02:21:57;27.80;;;15.43;;
62268;SDS011;56517;51.634;5.566;2023-05-14T02:23:18;20.80;;;13.85;;
62268;SDS011;56517;51.634;5.566;2023-05-14T02:24:39;28.23;;;14.80;;
62268;SDS011;56517;51.634;5.566;2023-05-14T02:26:00;23.52;;;14.65;;
62268;SDS011;56517;51.634;5.566;2023-05-14T02:27:21;25.67;;;13.90;;
62268;SDS011;56517;51.634;5.566;2023-05-14T02:28:42;26.08;;;14.82;;
62268;SDS011;56517;51.634;5.566;2023-05-14T02:30:03;21.17;;;14.15;;
62268;SDS011;56517;51.634;5.566;2023-05-14T02:31:24;23.48;;;14.70;;
62268;SDS011;56517;51.634;5.566;2023-05-14T02:32:45;23.98;;;14.63;;
62268;SDS011;56517;51.634;5.566;2023-05-14T02:34:06;24.88;;;14.38;;
62268;SDS011;56517;51.634;5.566;2023-05-14T02:35:27;22.42;;;15.02;;
62268;SDS011;56517;51.634;5.566;2023-05-14T02:36:48;22.05;;;14.55;;
62268;SDS011;56517;51.634;5.566;2023-05-14T02:38:11;23.08;;;15.15;;
62268;SDS011;56517;51.634;5.566;2023-05-14T02:39:32;19.23;;;14.15;;
62268;SDS011;56517;51.634;5.566;2023-05-14T02:40:53;23.10;;;14.85;;
62268;SDS011;56517;51.634;5.566;2023-05-14T02:42:14;27.17;;;15.43;;
62268;SDS011;56517;51.634;5.566;2023-05-14T02:43:35;25.27;;;14.60;;
62268;SDS011;56517;51.634;5.566;2023-05-14T02:44:55;18.70;;;13.73;;
62268;SDS011;56517;51.634;5.566;2023-05-14T02:46:16;25.83;;;15.50;;
62268;SDS011;56517;51.634;5.566;2023-05-14T02:47:37;28.38;;;16.40;;
62268;SDS011;56517;51.634;5.566;2023-05-14T02:48:58;25.05;;;16.33;;
62268;SDS011;56517;51.634;5.566;2023-05-14T02:50:19;35.63;;;16.25;;
62268;SDS011;56517;51.634;5.566;2023-05-14T02:51:40;25.80;;;14.88;;
62268;SDS011;56517;51.634;5.566;2023-05-14T02:53:01;23.13;;;15.20;;
62268;SDS011;56517;51.634;5.566;2023-05-14T02:54:22;32.50;;;16.50;;
62268;SDS011;56517;51.634;5.566;2023-05-14T02:55:42;25.77;;;15.07;;
62268;SDS011;56517;51.634;5.566;2023-05-14T02:57:03;23.13;;;15.63;;
62268;SDS011;56517;51.634;5.566;2023-05-14T02:58:24;32.58;;;16.50;;
62268;SDS011;56517;51.634;5.566;2023-05-14T02:59:46;23.88;;;14.63;;
62268;SDS011;56517;51.634;5.566;2023-05-14T03:01:07;22.92;;;15.23;;
62268;SDS011;56517;51.634;5.566;2023-05-14T03:02:28;19.88;;;15.35;;
62268;SDS011;56517;51.634;5.566;2023-05-14T03:03:49;23.60;;;15.13;;
62268;SDS011;56517;51.634;5.566;2023-05-14T03:05:10;26.23;;;15.48;;
62268;SDS011;56517;51.634;5.566;2023-05-14T03:06:31;24.85;;;15.98;;
62268;SDS011;56517;51.634;5.566;2023-05-14T03:07:52;25.63;;;15.82;;
62268;SDS011;56517;51.634;5.566;2023-05-14T03:09:13;23.35;;;15.50;;
62268;SDS011;56517;51.634;5.566;2023-05-14T03:10:34;26.85;;;16.13;;
62268;SDS011;56517;51.634;5.566;2023-05-14T03:11:55;29.73;;;16.77;;
62268;SDS011;56517;51.634;5.566;2023-05-14T03:13:16;22.87;;;15.57;;
62268;SDS011;56517;51.634;5.566;2023-05-14T03:14:39;21.77;;;14.77;;
62268;SDS011;56517;51.634;5.566;2023-05-14T03:16:00;26.63;;;15.52;;
62268;SDS011;56517;51.634;5.566;2023-05-14T03:17:21;36.25;;;18.67;;
62268;SDS011;56517;51.634;5.566;2023-05-14T03:18:42;22.65;;;14.88;;
62268;SDS011;56517;51.634;5.566;2023-05-14T03:20:05;21.00;;;15.55;;
62268;SDS011;56517;51.634;5.566;2023-05-14T03:21:29;29.50;;;17.50;;
62268;SDS011;56517;51.634;5.566;2023-05-14T03:22:51;25.65;;;16.08;;
62268;SDS011;56517;51.634;5.566;2023-05-14T03:24:12;28.02;;;17.13;;
62268;SDS011;56517;51.634;5.566;2023-05-14T03:25:33;32.15;;;17.33;;
62268;SDS011;56517;51.634;5.566;2023-05-14T03:26:54;25.42;;;16.40;;
62268;SDS011;56517;51.634;5.566;2023-05-14T03:28:15;23.33;;;16.42;;
62268;SDS011;56517;51.634;5.566;2023-05-14T03:29:36;27.70;;;16.30;;
62268;SDS011;56517;51.634;5.566;2023-05-14T03:30:57;27.10;;;17.05;;
62268;SDS011;56517;51.634;5.566;2023-05-14T03:32:19;33.00;;;16.67;;
62268;SDS011;56517;51.634;5.566;2023-05-14T03:33:41;26.33;;;15.70;;
62268;SDS011;56517;51.634;5.566;2023-05-14T03:35:02;24.77;;;16.13;;
62268;SDS011;56517;51.634;5.566;2023-05-14T03:36:23;29.90;;;17.58;;
62268;SDS011;56517;51.634;5.566;2023-05-14T03:37:44;27.00;;;17.20;;
62268;SDS011;56517;51.634;5.566;2023-05-14T03:39:05;28.58;;;17.48;;
62268;SDS011;56517;51.634;5.566;2023-05-14T03:40:27;27.35;;;16.15;;
62268;SDS011;56517;51.634;5.566;2023-05-14T03:41:48;31.67;;;17.25;;
62268;SDS011;56517;51.634;5.566;2023-05-14T03:43:12;33.33;;;18.15;;
62268;SDS011;56517;51.634;5.566;2023-05-14T03:44:32;31.23;;;17.63;;
62268;SDS011;56517;51.634;5.566;2023-05-14T03:45:53;31.40;;;17.25;;
62268;SDS011;56517;51.634;5.566;2023-05-14T03:47:14;30.60;;;17.77;;
62268;SDS011;56517;51.634;5.566;2023-05-14T03:48:35;28.65;;;18.17;;
62268;SDS011;56517;51.634;5.566;2023-05-14T03:49:56;23.95;;;15.88;;
62268;SDS011;56517;51.634;5.566;2023-05-14T03:51:17;32.33;;;18.48;;
62268;SDS011;56517;51.634;5.566;2023-05-14T03:52:38;28.65;;;17.92;;
62268;SDS011;56517;51.634;5.566;2023-05-14T03:54:00;28.17;;;17.45;;
62268;SDS011;56517;51.634;5.566;2023-05-14T03:55:21;28.35;;;17.67;;
62268;SDS011;56517;51.634;5.566;2023-05-14T03:56:42;34.03;;;19.13;;
62268;SDS011;56517;51.634;5.566;2023-05-14T03:58:02;32.75;;;19.27;;
62268;SDS011;56517;51.634;5.566;2023-05-14T03:59:27;30.50;;;19.05;;
62268;SDS011;56517;51.634;5.566;2023-05-14T04:00:48;31.73;;;19.38;;
62268;SDS011;56517;51.634;5.566;2023-05-14T04:02:11;31.17;;;18.33;;
62268;SDS011;56517;51.634;5.566;2023-05-14T04:03:32;31.35;;;18.75;;
62268;SDS011;56517;51.634;5.566;2023-05-14T04:04:53;28.40;;;18.25;;
62268;SDS011;56517;51.634;5.566;2023-05-14T04:06:14;26.52;;;17.55;;
62268;SDS011;56517;51.634;5.566;2023-05-14T04:07:35;29.33;;;18.45;;
62268;SDS011;56517;51.634;5.566;2023-05-14T04:08:55;33.13;;;19.42;;
62268;SDS011;56517;51.634;5.566;2023-05-14T04:10:17;29.77;;;18.80;;
62268;SDS011;56517;51.634;5.566;2023-05-14T04:11:37;27.35;;;19.25;;
62268;SDS011;56517;51.634;5.566;2023-05-14T04:13:01;38.50;;;21.50;;
62268;SDS011;56517;51.634;5.566;2023-05-14T04:14:22;32.15;;;19.25;;
62268;SDS011;56517;51.634;5.566;2023-05-14T04:15:43;30.70;;;18.98;;
62268;SDS011;56517;51.634;5.566;2023-05-14T04:17:04;41.15;;;20.33;;
62268;SDS011;56517;51.634;5.566;2023-05-14T04:18:27;29.77;;;19.10;;
62268;SDS011;56517;51.634;5.566;2023-05-14T04:19:48;26.40;;;18.33;;
62268;SDS011;56517;51.634;5.566;2023-05-14T04:21:09;33.35;;;18.88;;
62268;SDS011;56517;51.634;5.566;2023-05-14T04:22:30;34.75;;;20.92;;
62268;SDS011;56517;51.634;5.566;2023-05-14T04:23:52;31.77;;;18.85;;
62268;SDS011;56517;51.634;5.566;2023-05-14T04:25:13;29.17;;;19.10;;
62268;SDS011;56517;51.634;5.566;2023-05-14T04:26:34;29.38;;;19.70;;
62268;SDS011;56517;51.634;5.566;2023-05-14T04:27:58;24.83;;;17.63;;
62268;SDS011;56517;51.634;5.566;2023-05-14T04:29:19;29.88;;;18.77;;
62268;SDS011;56517;51.634;5.566;2023-05-14T04:30:43;31.23;;;21.05;;
62268;SDS011;56517;51.634;5.566;2023-05-14T04:32:05;32.25;;;20.35;;
62268;SDS011;56517;51.634;5.566;2023-05-14T04:33:27;30.48;;;19.50;;
62268;SDS011;56517;51.634;5.566;2023-05-14T04:34:48;30.40;;;18.90;;
62268;SDS011;56517;51.634;5.566;2023-05-14T04:36:09;32.33;;;19.35;;
62268;SDS011;56517;51.634;5.566;2023-05-14T04:37:29;32.45;;;20.10;;
62268;SDS011;56517;51.634;5.566;2023-05-14T04:38:51;31.60;;;20.53;;
62268;SDS011;56517;51.634;5.566;2023-05-14T04:40:14;30.30;;;19.23;;
62268;SDS011;56517;51.634;5.566;2023-05-14T04:42:57;35.40;;;20.70;;
62268;SDS011;56517;51.634;5.566;2023-05-14T04:44:18;37.78;;;21.10;;
62268;SDS011;56517;51.634;5.566;2023-05-14T04:45:38;30.40;;;20.08;;
62268;SDS011;56517;51.634;5.566;2023-05-14T04:47:00;31.67;;;20.40;;
62268;SDS011;56517;51.634;5.566;2023-05-14T04:48:21;36.60;;;21.53;;
62268;SDS011;56517;51.634;5.566;2023-05-14T04:49:42;32.25;;;19.98;;
62268;SDS011;56517;51.634;5.566;2023-05-14T04:51:03;33.80;;;21.38;;
62268;SDS011;56517;51.634;5.566;2023-05-14T04:52:24;32.63;;;20.42;;
62268;SDS011;56517;51.634;5.566;2023-05-14T04:53:45;30.90;;;20.85;;
62268;SDS011;56517;51.634;5.566;2023-05-14T04:55:07;33.78;;;22.20;;
62268;SDS011;56517;51.634;5.566;2023-05-14T04:56:31;39.28;;;23.45;;
62268;SDS011;56517;51.634;5.566;2023-05-14T04:57:52;40.65;;;24.45;;
62268;SDS011;56517;51.634;5.566;2023-05-14T04:59:13;37.70;;;21.75;;
62268;SDS011;56517;51.634;5.566;2023-05-14T05:00:34;37.92;;;22.42;;
62268;SDS011;56517;51.634;5.566;2023-05-14T05:01:54;35.15;;;21.50;;
62268;SDS011;56517;51.634;5.566;2023-05-14T05:03:15;38.97;;;20.92;;
62268;SDS011;56517;51.634;5.566;2023-05-14T05:04:37;36.20;;;22.13;;
62268;SDS011;56517;51.634;5.566;2023-05-14T05:05:58;39.55;;;21.80;;
62268;SDS011;56517;51.634;5.566;2023-05-14T05:07:19;42.00;;;22.30;;
62268;SDS011;56517;51.634;5.566;2023-05-14T05:08:39;41.33;;;23.63;;
62268;SDS011;56517;51.634;5.566;2023-05-14T05:10:01;34.20;;;21.70;;
62268;SDS011;56517;51.634;5.566;2023-05-14T05:11:22;37.75;;;21.73;;
62268;SDS011;56517;51.634;5.566;2023-05-14T05:12:43;31.88;;;21.10;;
62268;SDS011;56517;51.634;5.566;2023-05-14T05:14:03;34.05;;;20.50;;
62268;SDS011;56517;51.634;5.566;2023-05-14T05:15:24;39.28;;;22.98;;
62268;SDS011;56517;51.634;5.566;2023-05-14T05:16:45;47.08;;;22.10;;
62268;SDS011;56517;51.634;5.566;2023-05-14T05:18:11;40.35;;;22.33;;
62268;SDS011;56517;51.634;5.566;2023-05-14T05:19:32;41.85;;;22.20;;
62268;SDS011;56517;51.634;5.566;2023-05-14T05:20:53;50.53;;;23.17;;
62268;SDS011;56517;51.634;5.566;2023-05-14T05:22:15;39.35;;;21.40;;
62268;SDS011;56517;51.634;5.566;2023-05-14T05:23:36;38.80;;;22.70;;
62268;SDS011;56517;51.634;5.566;2023-05-14T05:24:57;39.13;;;21.10;;
62268;SDS011;56517;51.634;5.566;2023-05-14T05:26:19;34.63;;;21.35;;
62268;SDS011;56517;51.634;5.566;2023-05-14T05:27:41;49.40;;;23.88;;
62268;SDS011;56517;51.634;5.566;2023-05-14T05:29:02;40.30;;;22.13;;
62268;SDS011;56517;51.634;5.566;2023-05-14T05:30:23;38.90;;;22.50;;
62268;SDS011;56517;51.634;5.566;2023-05-14T05:31:44;32.95;;;22.27;;
62268;SDS011;56517;51.634;5.566;2023-05-14T05:33:06;34.65;;;22.02;;
62268;SDS011;56517;51.634;5.566;2023-05-14T05:34:26;39.78;;;21.20;;
62268;SDS011;56517;51.634;5.566;2023-05-14T05:35:47;37.45;;;22.17;;
62268;SDS011;56517;51.634;5.566;2023-05-14T05:37:09;35.90;;;21.58;;
62268;SDS011;56517;51.634;5.566;2023-05-14T05:38:32;36.58;;;22.20;;
62268;SDS011;56517;51.634;5.566;2023-05-14T05:39:53;38.42;;;20.98;;
62268;SDS011;56517;51.634;5.566;2023-05-14T05:41:14;31.85;;;20.45;;
62268;SDS011;56517;51.634;5.566;2023-05-14T05:42:35;29.75;;;20.00;;
62268;SDS011;56517;51.634;5.566;2023-05-14T05:43:55;33.85;;;19.20;;
62268;SDS011;56517;51.634;5.566;2023-05-14T05:45:16;34.95;;;19.70;;
62268;SDS011;56517;51.634;5.566;2023-05-14T05:46:37;31.05;;;20.17;;
62268;SDS011;56517;51.634;5.566;2023-05-14T05:47:58;30.60;;;19.83;;
62268;SDS011;56517;51.634;5.566;2023-05-14T05:49:19;31.38;;;18.95;;
62268;SDS011;56517;51.634;5.566;2023-05-14T05:50:40;43.75;;;21.10;;
62268;SDS011;56517;51.634;5.566;2023-05-14T05:52:01;45.53;;;22.23;;
62268;SDS011;56517;51.634;5.566;2023-05-14T05:53:22;43.83;;;21.10;;
62268;SDS011;56517;51.634;5.566;2023-05-14T05:54:43;46.55;;;21.23;;
62268;SDS011;56517;51.634;5.566;2023-05-14T05:56:04;50.03;;;21.77;;
62268;SDS011;56517;51.634;5.566;2023-05-14T05:57:25;51.20;;;23.70;;
62268;SDS011;56517;51.634;5.566;2023-05-14T05:58:47;50.80;;;22.80;;
62268;SDS011;56517;51.634;5.566;2023-05-14T06:00:08;52.75;;;23.80;;
62268;SDS011;56517;51.634;5.566;2023-05-14T06:01:34;30.38;;;18.10;;
62268;SDS011;56517;51.634;5.566;2023-05-14T06:02:55;33.20;;;17.42;;
62268;SDS011;56517;51.634;5.566;2023-05-14T06:04:16;36.92;;;18.38;;
62268;SDS011;56517;51.634;5.566;2023-05-14T06:05:37;31.38;;;19.27;;
62268;SDS011;56517;51.634;5.566;2023-05-14T06:06:58;29.45;;;17.25;;
62268;SDS011;56517;51.634;5.566;2023-05-14T06:08:19;37.10;;;19.73;;
62268;SDS011;56517;51.634;5.566;2023-05-14T06:09:40;36.78;;;18.88;;
62268;SDS011;56517;51.634;5.566;2023-05-14T06:11:01;33.85;;;19.48;;
62268;SDS011;56517;51.634;5.566;2023-05-14T06:12:22;39.38;;;20.05;;
62268;SDS011;56517;51.634;5.566;2023-05-14T06:13:43;39.45;;;19.13;;
62268;SDS011;56517;51.634;5.566;2023-05-14T06:15:05;29.65;;;17.55;;
62268;SDS011;56517;51.634;5.566;2023-05-14T06:16:26;35.28;;;18.38;;
62268;SDS011;56517;51.634;5.566;2023-05-14T06:17:49;32.20;;;18.02;;
62268;SDS011;56517;51.634;5.566;2023-05-14T06:19:10;31.20;;;18.65;;
62268;SDS011;56517;51.634;5.566;2023-05-14T06:20:31;35.70;;;19.27;;
62268;SDS011;56517;51.634;5.566;2023-05-14T06:21:52;31.67;;;18.80;;
62268;SDS011;56517;51.634;5.566;2023-05-14T06:23:15;30.10;;;17.83;;
62268;SDS011;56517;51.634;5.566;2023-05-14T06:24:36;33.40;;;19.52;;
62268;SDS011;56517;51.634;5.566;2023-05-14T06:25:57;33.65;;;20.00;;
62268;SDS011;56517;51.634;5.566;2023-05-14T06:27:18;35.20;;;19.73;;
62268;SDS011;56517;51.634;5.566;2023-05-14T06:28:39;29.67;;;20.02;;
62268;SDS011;56517;51.634;5.566;2023-05-14T06:30:00;32.67;;;18.02;;
62268;SDS011;56517;51.634;5.566;2023-05-14T06:31:21;34.20;;;18.80;;
62268;SDS011;56517;51.634;5.566;2023-05-14T06:32:42;29.63;;;18.98;;
62268;SDS011;56517;51.634;5.566;2023-05-14T06:34:03;33.00;;;17.20;;
62268;SDS011;56517;51.634;5.566;2023-05-14T06:35:24;47.17;;;20.80;;
62268;SDS011;56517;51.634;5.566;2023-05-14T06:36:44;33.83;;;19.33;;
62268;SDS011;56517;51.634;5.566;2023-05-14T06:38:08;31.58;;;19.55;;
62268;SDS011;56517;51.634;5.566;2023-05-14T06:39:30;31.25;;;19.13;;
62268;SDS011;56517;51.634;5.566;2023-05-14T06:40:51;29.40;;;18.30;;
62268;SDS011;56517;51.634;5.566;2023-05-14T06:42:15;40.42;;;20.45;;
62268;SDS011;56517;51.634;5.566;2023-05-14T06:43:36;33.97;;;18.37;;
62268;SDS011;56517;51.634;5.566;2023-05-14T06:44:57;26.63;;;17.15;;
62268;SDS011;56517;51.634;5.566;2023-05-14T06:46:20;30.63;;;17.90;;
62268;SDS011;56517;51.634;5.566;2023-05-14T06:47:42;30.08;;;17.48;;
62268;SDS011;56517;51.634;5.566;2023-05-14T06:49:03;38.03;;;19.08;;
62268;SDS011;56517;51.634;5.566;2023-05-14T06:50:26;25.75;;;16.98;;
62268;SDS011;56517;51.634;5.566;2023-05-14T06:51:47;27.92;;;17.98;;
62268;SDS011;56517;51.634;5.566;2023-05-14T06:53:08;28.67;;;17.52;;
62268;SDS011;56517;51.634;5.566;2023-05-14T06:54:29;28.15;;;16.55;;
62268;SDS011;56517;51.634;5.566;2023-05-14T06:55:50;25.95;;;17.52;;
62268;SDS011;56517;51.634;5.566;2023-05-14T06:57:11;28.15;;;17.02;;
62268;SDS011;56517;51.634;5.566;2023-05-14T06:58:32;33.78;;;18.70;;
62268;SDS011;56517;51.634;5.566;2023-05-14T06:59:53;27.13;;;17.10;;
62268;SDS011;56517;51.634;5.566;2023-05-14T07:01:14;27.23;;;17.02;;
62268;SDS011;56517;51.634;5.566;2023-05-14T07:02:36;54.42;;;24.85;;
62268;SDS011;56517;51.634;5.566;2023-05-14T07:03:56;42.15;;;20.27;;
62268;SDS011;56517;51.634;5.566;2023-05-14T07:05:17;40.38;;;20.02;;
62268;SDS011;56517;51.634;5.566;2023-05-14T07:06:38;42.50;;;20.40;;
62268;SDS011;56517;51.634;5.566;2023-05-14T07:08:00;37.22;;;19.42;;
62268;SDS011;56517;51.634;5.566;2023-05-14T07:09:21;49.70;;;20.83;;
62268;SDS011;56517;51.634;5.566;2023-05-14T07:10:42;37.10;;;20.33;;
62268;SDS011;56517;51.634;5.566;2023-05-14T07:12:03;36.60;;;19.73;;
62268;SDS011;56517;51.634;5.566;2023-05-14T07:13:24;33.17;;;18.80;;
62268;SDS011;56517;51.634;5.566;2023-05-14T07:14:46;39.95;;;20.63;;
62268;SDS011;56517;51.634;5.566;2023-05-14T07:16:07;36.13;;;18.70;;
62268;SDS011;56517;51.634;5.566;2023-05-14T07:17:31;31.65;;;19.23;;
62268;SDS011;56517;51.634;5.566;2023-05-14T07:18:52;24.10;;;16.45;;
62268;SDS011;56517;51.634;5.566;2023-05-14T07:20:13;37.47;;;18.77;;
62268;SDS011;56517;51.634;5.566;2023-05-14T07:21:34;33.28;;;19.20;;
62268;SDS011;56517;51.634;5.566;2023-05-14T07:22:55;32.33;;;18.27;;
62268;SDS011;56517;51.634;5.566;2023-05-14T07:24:16;32.97;;;17.80;;
62268;SDS011;56517;51.634;5.566;2023-05-14T07:25:37;30.05;;;18.35;;
62268;SDS011;56517;51.634;5.566;2023-05-14T07:26:58;29.98;;;17.52;;
62268;SDS011;56517;51.634;5.566;2023-05-14T07:28:19;34.22;;;18.13;;
62268;SDS011;56517;51.634;5.566;2023-05-14T07:29:40;27.08;;;17.58;;
62268;SDS011;56517;51.634;5.566;2023-05-14T07:31:01;26.40;;;17.50;;
62268;SDS011;56517;51.634;5.566;2023-05-14T07:32:22;39.63;;;19.08;;
62268;SDS011;56517;51.634;5.566;2023-05-14T07:33:47;25.98;;;16.38;;
62268;SDS011;56517;51.634;5.566;2023-05-14T07:35:08;33.80;;;17.58;;
62268;SDS011;56517;51.634;5.566;2023-05-14T07:36:29;36.35;;;19.13;;
62268;SDS011;56517;51.634;5.566;2023-05-14T07:37:52;42.13;;;18.90;;
62268;SDS011;56517;51.634;5.566;2023-05-14T07:39:13;32.78;;;17.60;;
62268;SDS011;56517;51.634;5.566;2023-05-14T07:40:34;33.45;;;18.75;;
62268;SDS011;56517;51.634;5.566;2023-05-14T07:41:55;42.67;;;19.98;;
62268;SDS011;56517;51.634;5.566;2023-05-14T07:43:15;33.53;;;18.23;;
62268;SDS011;56517;51.634;5.566;2023-05-14T07:44:36;36.15;;;17.92;;
62268;SDS011;56517;51.634;5.566;2023-05-14T07:45:57;37.70;;;18.90;;
62268;SDS011;56517;51.634;5.566;2023-05-14T07:47:18;29.33;;;16.98;;
62268;SDS011;56517;51.634;5.566;2023-05-14T07:48:39;30.27;;;17.20;;
62268;SDS011;56517;51.634;5.566;2023-05-14T07:50:00;27.95;;;16.42;;
62268;SDS011;56517;51.634;5.566;2023-05-14T07:51:21;27.88;;;16.30;;
62268;SDS011;56517;51.634;5.566;2023-05-14T07:52:43;32.70;;;18.57;;
62268;SDS011;56517;51.634;5.566;2023-05-14T07:54:04;26.70;;;15.80;;
62268;SDS011;56517;51.634;5.566;2023-05-14T07:55:25;29.38;;;15.93;;
62268;SDS011;56517;51.634;5.566;2023-05-14T07:56:45;27.30;;;16.70;;
62268;SDS011;56517;51.634;5.566;2023-05-14T07:58:06;27.35;;;15.20;;
62268;SDS011;56517;51.634;5.566;2023-05-14T07:59:27;28.67;;;16.50;;
62268;SDS011;56517;51.634;5.566;2023-05-14T08:00:48;35.85;;;17.45;;
62268;SDS011;56517;51.634;5.566;2023-05-14T08:02:09;30.83;;;16.75;;